Time;durP1;ratioP1;P1;durP2;ratioP2;P2;SDS_P1;SDS_P2;PMS_P1;PMS_P2;Temp;Humidity;BMP_temperature;BMP_pressure;BME280_temperature;BME280_humidity;BME280_pressure;Samples;Min_cycle;Max_cycle;Signal;HPM_P1;HPM_P2
2023/03/09 00:01:23;;;;;;;2.75;2.55;;;;;;;;;;5052348;28;20217;-82
2023/03/09 00:03:51;;;;;;;2.42;2.22;;;;;;;;;;5052681;28;20308;-82
2023/03/09 00:06:20;;;;;;;2.13;2.00;;;;;;;;;;5052640;28;20232;-82
2023/03/09 00:08:48;;;;;;;2.53;2.33;;;;;;;;;;5052673;28;20202;-82
2023/03/09 00:11:17;;;;;;;2.40;2.20;;;;;;;;;;5052560;28;20232;-82
2023/03/09 00:13:45;;;;;;;2.72;2.53;;;;;;;;;;5052247;28;20432;-82
2023/03/09 00:16:15;;;;;;;2.67;2.47;;;;;;;;;;5052039;28;20221;-82
2023/03/09 00:18:43;;;;;;;3.28;2.97;;;;;;;;;;5052709;28;20220;-83
2023/03/09 00:21:14;;;;;;;2.60;2.40;;;;;;;;;;5052687;28;20309;-81
2023/03/09 00:23:44;;;;;;;2.10;2.00;;;;;;;;;;5052707;28;20202;-82
2023/03/09 00:26:11;;;;;;;2.13;2.03;;;;;;;;;;5052310;28;20312;-83
2023/03/09 00:28:40;;;;;;;2.95;2.65;;;;;;;;;;5052148;28;20289;-83
2023/03/09 00:31:08;;;;;;;2.60;2.40;;;;;;;;;;5052540;28;20224;-82
2023/03/09 00:33:36;;;;;;;3.22;2.92;;;;;;;;;;5052393;28;20201;-83
2023/03/09 00:36:03;;;;;;;2.70;2.50;;;;;;;;;;5051806;28;20313;-82
2023/03/09 00:38:31;;;;;;;2.40;2.20;;;;;;;;;;5051948;28;20206;-83
2023/03/09 00:40:59;;;;;;;2.67;2.47;;;;;;;;;;5052363;28;20332;-82
2023/03/09 00:43:27;;;;;;;3.53;3.20;;;;;;;;;;5052483;28;20296;-82
2023/03/09 00:45:54;;;;;;;3.65;2.88;;;;;;;;;;5052388;28;20304;-83
2023/03/09 00:48:22;;;;;;;1.63;1.52;;;;;;;;;;5052530;28;20212;-83
2023/03/09 00:50:49;;;;;;;2.13;2.03;;;;;;;;;;5052356;28;20284;-82
2023/03/09 00:53:17;;;;;;;1.80;1.70;;;;;;;;;;5052356;28;20289;-83
2023/03/09 00:55:44;;;;;;;2.25;2.05;;;;;;;;;;5056324;28;20311;-83
2023/03/09 00:58:13;;;;;;;2.42;2.22;;;;;;;;;;5072258;28;20289;-82
2023/03/09 01:00:41;;;;;;;2.00;1.80;;;;;;;;;;5074287;28;20299;-83
2023/03/09 01:03:08;;;;;;;2.78;2.58;;;;;;;;;;5076087;28;20247;-83
2023/03/09 01:05:36;;;;;;;1.92;1.83;;;;;;;;;;5075748;28;20256;-81
2023/03/09 01:08:03;;;;;;;2.10;2.00;;;;;;;;;;5075606;28;20232;-83
2023/03/09 01:10:31;;;;;;;1.80;1.70;;;;;;;;;;5075116;28;20201;-83
2023/03/09 01:12:58;;;;;;;1.63;1.52;;;;;;;;;;5075566;28;20203;-83
2023/03/09 01:15:27;;;;;;;2.08;1.98;;;;;;;;;;5075552;28;20311;-81
2023/03/09 01:17:54;;;;;;;2.35;2.15;;;;;;;;;;5075864;28;20619;-83
2023/03/09 01:20:22;;;;;;;1.77;1.67;;;;;;;;;;5076665;28;20296;-83
2023/03/09 01:22:50;;;;;;;2.15;1.88;;;;;;;;;;5075848;28;20228;-83
2023/03/09 01:25:17;;;;;;;2.28;2.17;;;;;;;;;;5076329;28;20256;-83
2023/03/09 01:27:45;;;;;;;2.25;2.10;;;;;;;;;;5075935;28;20215;-83
2023/03/09 01:30:14;;;;;;;1.75;1.65;;;;;;;;;;5075355;28;20235;-82
2023/03/09 01:32:42;;;;;;;1.95;1.85;;;;;;;;;;5075285;28;20237;-82
2023/03/09 01:35:10;;;;;;;2.03;1.92;;;;;;;;;;5075929;28;20299;-84
2023/03/09 01:37:38;;;;;;;2.50;2.17;;;;;;;;;;5075678;28;20283;-83
2023/03/09 01:40:08;;;;;;;3.60;2.72;;;;;;;;;;5074986;28;20291;-82
2023/03/09 01:42:36;;;;;;;3.25;2.95;;;;;;;;;;5074629;28;20229;-83
2023/03/09 01:46:07;;;;;;;2.50;2.30;;;;;;;;;;5075161;28;20712;-82
2023/03/09 01:48:36;;;;;;;2.95;2.65;;;;;;;;;;5074559;28;20200;-82
2023/03/09 01:51:04;;;;;;;2.28;2.08;;;;;;;;;;5074987;28;20197;-82
2023/03/09 01:53:32;;;;;;;3.25;2.80;;;;;;;;;;5075054;28;20687;-82
2023/03/09 01:56:01;;;;;;;2.45;2.25;;;;;;;;;;5068397;28;20308;-82
2023/03/09 01:58:30;;;;;;;2.47;2.28;;;;;;;;;;5054934;28;20285;-82
2023/03/09 02:00:58;;;;;;;2.33;2.13;;;;;;;;;;5055177;28;20738;-83
2023/03/09 02:03:29;;;;;;;2.83;2.63;;;;;;;;;;5054715;28;20248;-83
2023/03/09 02:06:02;;;;;;;2.67;2.47;;;;;;;;;;5054938;28;20616;-83
2023/03/09 02:08:30;;;;;;;2.17;1.98;;;;;;;;;;5054185;28;20389;-83
2023/03/09 02:10:59;;;;;;;2.53;2.33;;;;;;;;;;5053539;28;20285;-83
2023/03/09 02:13:33;;;;;;;2.88;2.65;;;;;;;;;;5054465;28;20297;-84
2023/03/09 02:16:00;;;;;;;2.38;2.20;;;;;;;;;;5054539;28;20228;-84
2023/03/09 02:18:28;;;;;;;2.58;2.38;;;;;;;;;;5054240;28;20244;-82
2023/03/09 02:21:05;;;;;;;2.20;1.98;;;;;;;;;;5054588;28;20208;-82
2023/03/09 02:23:39;;;;;;;2.35;2.20;;;;;;;;;;5054666;28;20232;-83
2023/03/09 02:26:15;;;;;;;2.45;2.20;;;;;;;;;;5062078;28;20238;-82
2023/03/09 02:28:44;;;;;;;2.00;1.90;;;;;;;;;;5074134;28;20205;-84
2023/03/09 02:31:11;;;;;;;1.80;1.70;;;;;;;;;;5074163;28;20292;-83
2023/03/09 02:33:39;;;;;;;1.60;1.50;;;;;;;;;;5073952;28;20296;-83
2023/03/09 02:36:08;;;;;;;2.03;1.60;;;;;;;;;;5073825;28;20309;-82
2023/03/09 02:38:35;;;;;;;1.65;1.55;;;;;;;;;;5073638;28;20222;-83
2023/03/09 02:41:05;;;;;;;1.60;1.50;;;;;;;;;;5073799;28;20291;-83
2023/03/09 02:43:37;;;;;;;1.52;1.42;;;;;;;;;;5074049;28;20311;-82
2023/03/09 02:46:06;;;;;;;1.60;1.50;;;;;;;;;;5074508;28;20221;-83
2023/03/09 02:48:33;;;;;;;1.42;1.33;;;;;;;;;;5073020;28;20288;-82
2023/03/09 02:51:01;;;;;;;1.77;1.67;;;;;;;;;;5073876;28;20296;-82
2023/03/09 02:53:28;;;;;;;1.80;1.70;;;;;;;;;;5073421;28;20287;-83
2023/03/09 02:55:59;;;;;;;1.52;1.45;;;;;;;;;;5067301;28;20262;-82
2023/03/09 02:58:26;;;;;;;1.55;1.45;;;;;;;;;;5053970;28;20190;-82
2023/03/09 03:00:54;;;;;;;1.90;1.70;;;;;;;;;;5053750;28;20214;-84
2023/03/09 03:03:22;;;;;;;1.80;1.70;;;;;;;;;;5053766;28;20232;-83
2023/03/09 03:05:50;;;;;;;1.55;1.45;;;;;;;;;;5053605;28;20304;-83
2023/03/09 03:08:17;;;;;;;2.10;1.90;;;;;;;;;;5053257;28;20293;-84
2023/03/09 03:10:45;;;;;;;1.77;1.52;;;;;;;;;;5052907;28;20577;-83
2023/03/09 03:13:12;;;;;;;1.65;1.55;;;;;;;;;;5053708;28;20255;-84
2023/03/09 03:15:40;;;;;;;1.80;1.70;;;;;;;;;;5053103;28;20228;-84
2023/03/09 03:18:07;;;;;;;1.60;1.50;;;;;;;;;;5053362;28;20289;-82
2023/03/09 03:20:36;;;;;;;1.33;1.23;;;;;;;;;;5053137;28;20726;-84
2023/03/09 03:23:04;;;;;;;1.80;1.65;;;;;;;;;;5053266;28;20263;-84
2023/03/09 03:25:32;;;;;;;1.88;1.75;;;;;;;;;;5055882;28;20630;-84
2023/03/09 03:27:59;;;;;;;1.55;1.45;;;;;;;;;;5072574;28;20292;-84
2023/03/09 03:30:27;;;;;;;1.90;1.80;;;;;;;;;;5072208;28;20228;-83
2023/03/09 03:32:54;;;;;;;1.50;1.40;;;;;;;;;;5072779;28;20283;-83
2023/03/09 03:35:22;;;;;;;1.65;1.55;;;;;;;;;;5072974;28;20252;-83
2023/03/09 03:37:51;;;;;;;1.80;1.70;;;;;;;;;;5073046;28;20625;-83
2023/03/09 03:40:19;;;;;;;1.75;1.65;;;;;;;;;;5072604;28;20552;-84
2023/03/09 03:42:47;;;;;;;1.90;1.80;;;;;;;;;;5072860;28;20622;-83
2023/03/09 03:45:14;;;;;;;2.35;2.15;;;;;;;;;;5072648;28;20579;-84
2023/03/09 03:47:42;;;;;;;1.70;1.60;;;;;;;;;;5072218;28;20287;-83
2023/03/09 03:50:11;;;;;;;2.85;2.65;;;;;;;;;;5072138;28;20235;-83
2023/03/09 03:52:38;;;;;;;2.25;2.13;;;;;;;;;;5073042;28;20287;-83
2023/03/09 03:55:08;;;;;;;2.03;1.92;;;;;;;;;;5072666;28;20226;-82
2023/03/09 03:57:36;;;;;;;2.45;2.25;;;;;;;;;;5052919;28;20200;-84
2023/03/09 04:00:09;;;;;;;1.80;1.70;;;;;;;;;;5052383;28;20225;-83
2023/03/09 04:02:37;;;;;;;1.98;1.85;;;;;;;;;;5052981;28;20576;-84
2023/03/09 04:05:05;;;;;;;1.55;1.45;;;;;;;;;;5052731;28;20202;-83
2023/03/09 04:07:32;;;;;;;1.90;1.80;;;;;;;;;;5052674;28;20205;-84
2023/03/09 04:10:00;;;;;;;2.00;1.90;;;;;;;;;;5052153;28;20262;-82
2023/03/09 04:12:29;;;;;;;1.92;1.80;;;;;;;;;;5052532;28;20242;-83
2023/03/09 04:14:56;;;;;;;1.67;1.58;;;;;;;;;;5052542;28;20288;-83
2023/03/09 04:17:24;;;;;;;1.83;1.73;;;;;;;;;;5052953;28;20288;-83
2023/03/09 04:19:51;;;;;;;2.45;2.30;;;;;;;;;;5052205;28;20281;-83
2023/03/09 04:22:19;;;;;;;1.75;1.65;;;;;;;;;;5052592;28;20216;-83
2023/03/09 04:24:50;;;;;;;1.10;1.10;;;;;;;;;;5052311;28;20658;-82
2023/03/09 04:27:17;;;;;;;1.58;1.48;;;;;;;;;;5053105;28;20532;-84
2023/03/09 04:29:46;;;;;;;2.00;1.90;;;;;;;;;;5052198;28;20292;-82
2023/03/09 04:32:14;;;;;;;1.52;1.42;;;;;;;;;;5052995;28;20304;-84
2023/03/09 04:34:41;;;;;;;1.65;1.55;;;;;;;;;;5055198;28;20293;-83
2023/03/09 04:37:09;;;;;;;1.98;1.88;;;;;;;;;;5056887;28;20320;-83
2023/03/09 04:39:36;;;;;;;1.55;1.45;;;;;;;;;;5056189;28;20200;-82
2023/03/09 04:42:04;;;;;;;1.77;1.67;;;;;;;;;;5056549;28;20297;-83
2023/03/09 04:44:32;;;;;;;1.38;1.30;;;;;;;;;;5056920;28;20705;-83
2023/03/09 04:47:01;;;;;;;1.13;1.13;;;;;;;;;;5057577;28;20332;-84
2023/03/09 04:49:29;;;;;;;1.00;1.00;;;;;;;;;;5056579;28;20312;-84
2023/03/09 04:51:57;;;;;;;1.23;1.20;;;;;;;;;;5056574;28;20239;-83
2023/03/09 04:54:24;;;;;;;1.13;1.10;;;;;;;;;;5056530;28;20285;-83
2023/03/09 04:56:52;;;;;;;0.90;0.90;;;;;;;;;;5069527;28;20307;-84
2023/03/09 04:59:19;;;;;;;1.50;1.40;;;;;;;;;;5075842;28;20582;-83
2023/03/09 05:01:47;;;;;;;1.65;1.50;;;;;;;;;;5076361;28;20320;-84
2023/03/09 05:04:15;;;;;;;1.75;1.65;;;;;;;;;;5075913;28;20221;-84
2023/03/09 05:06:44;;;;;;;1.35;1.25;;;;;;;;;;5076191;28;20259;-81
2023/03/09 05:09:12;;;;;;;1.63;1.52;;;;;;;;;;5075722;28;20207;-82
2023/03/09 05:11:39;;;;;;;1.80;1.65;;;;;;;;;;5076463;28;20211;-83
2023/03/09 05:14:07;;;;;;;1.40;1.30;;;;;;;;;;5075929;28;20287;-82
2023/03/09 05:16:34;;;;;;;1.75;1.65;;;;;;;;;;5075835;28;20668;-84
2023/03/09 05:19:02;;;;;;;1.02;1.02;;;;;;;;;;5075585;28;20717;-83
2023/03/09 05:21:32;;;;;;;1.00;1.00;;;;;;;;;;5076166;28;20297;-83
2023/03/09 05:23:59;;;;;;;1.27;1.17;;;;;;;;;;5076849;28;20260;-84
2023/03/09 05:26:28;;;;;;;1.17;1.08;;;;;;;;;;5075601;28;20324;-84
2023/03/09 05:28:55;;;;;;;0.90;0.90;;;;;;;;;;5075662;28;20228;-83
2023/03/09 05:31:23;;;;;;;0.90;0.90;;;;;;;;;;5075706;28;20241;-84
2023/03/09 05:33:52;;;;;;;0.80;0.80;;;;;;;;;;5076244;28;20695;-83
2023/03/09 05:36:23;;;;;;;0.70;0.70;;;;;;;;;;5075258;28;20229;-84
2023/03/09 05:38:53;;;;;;;1.25;1.13;;;;;;;;;;5076013;28;20216;-82
2023/03/09 05:41:21;;;;;;;0.90;0.90;;;;;;;;;;5075429;28;20600;-82
2023/03/09 05:43:49;;;;;;;1.05;1.05;;;;;;;;;;5078464;28;20308;-82
2023/03/09 05:46:18;;;;;;;0.70;0.70;;;;;;;;;;5074324;28;20263;-84
2023/03/09 05:48:48;;;;;;;0.95;0.95;;;;;;;;;;5074958;28;20288;-85
2023/03/09 05:51:16;;;;;;;1.20;1.10;;;;;;;;;;5075064;28;20185;-83
2023/03/09 05:53:44;;;;;;;0.90;0.90;;;;;;;;;;5075173;28;20654;-84
2023/03/09 05:56:13;;;;;;;0.80;0.80;;;;;;;;;;5074709;28;20217;-83
2023/03/09 05:58:40;;;;;;;0.82;0.82;;;;;;;;;;5074830;28;20209;-82
2023/03/09 06:01:18;;;;;;;1.20;1.10;;;;;;;;;;5075082;28;20359;-85
2023/03/09 06:03:46;;;;;;;1.40;1.40;;;;;;;;;;5075036;28;20231;-83
2023/03/09 06:06:14;;;;;;;1.40;1.30;;;;;;;;;;5075495;28;20221;-85
2023/03/09 06:08:41;;;;;;;1.80;1.70;;;;;;;;;;5075621;28;20288;-83
2023/03/09 06:11:10;;;;;;;1.70;1.60;;;;;;;;;;5074674;28;20231;-84
2023/03/09 06:13:38;;;;;;;1.48;1.38;;;;;;;;;;5074632;28;20197;-82
2023/03/09 06:16:08;;;;;;;1.85;1.65;;;;;;;;;;5074501;28;20311;-83
2023/03/09 06:18:35;;;;;;;2.08;1.90;;;;;;;;;;5074406;28;20284;-83
2023/03/09 06:21:04;;;;;;;1.60;1.50;;;;;;;;;;5074299;28;20201;-83
2023/03/09 06:23:35;;;;;;;2.55;2.20;;;;;;;;;;5058277;28;20189;-84
2023/03/09 06:26:03;;;;;;;2.70;2.40;;;;;;;;;;5074074;28;20708;-84
2023/03/09 06:28:31;;;;;;;2.13;2.03;;;;;;;;;;5073948;28;20209;-83
2023/03/09 06:31:00;;;;;;;2.15;2.03;;;;;;;;;;5073599;28;20201;-85
2023/03/09 06:33:27;;;;;;;2.13;1.95;;;;;;;;;;5074244;28;20275;-84
2023/03/09 06:35:55;;;;;;;1.80;1.70;;;;;;;;;;5073609;28;20669;-83
2023/03/09 06:38:24;;;;;;;1.70;1.60;;;;;;;;;;5073730;28;20632;-84
2023/03/09 06:40:54;;;;;;;1.70;1.60;;;;;;;;;;5074015;28;20611;-84
2023/03/09 06:43:22;;;;;;;2.15;1.95;;;;;;;;;;5073962;28;20196;-83
2023/03/09 06:45:50;;;;;;;2.40;2.20;;;;;;;;;;5073495;28;20225;-85
2023/03/09 06:48:19;;;;;;;3.28;2.97;;;;;;;;;;5073730;28;20207;-84
2023/03/09 06:50:48;;;;;;;2.22;2.03;;;;;;;;;;5073536;28;20300;-84
2023/03/09 06:53:16;;;;;;;2.80;2.60;;;;;;;;;;5073831;28;20197;-82
2023/03/09 06:55:44;;;;;;;2.70;2.50;;;;;;;;;;5072880;28;20216;-83
2023/03/09 06:58:11;;;;;;;2.75;2.55;;;;;;;;;;5073073;28;20309;-84
2023/03/09 07:00:40;;;;;;;2.10;1.90;;;;;;;;;;5073143;28;20655;-85
2023/03/09 07:03:11;;;;;;;2.30;2.10;;;;;;;;;;5073452;28;20209;-83
2023/03/09 07:05:40;;;;;;;1.48;1.38;;;;;;;;;;5073576;28;20231;-85
2023/03/09 07:08:08;;;;;;;1.38;1.27;;;;;;;;;;5073669;28;20680;-83
2023/03/09 07:10:35;;;;;;;1.58;1.38;;;;;;;;;;5073429;28;20288;-85
2023/03/09 07:13:03;;;;;;;1.10;1.00;;;;;;;;;;5073668;28;20641;-85
2023/03/09 07:15:30;;;;;;;2.38;1.38;;;;;;;;;;5073647;28;20223;-83
2023/03/09 07:17:58;;;;;;;0.93;0.93;;;;;;;;;;5073408;28;20292;-82
2023/03/09 07:20:26;;;;;;;0.93;0.90;;;;;;;;;;5072956;28;20207;-85
2023/03/09 07:22:54;;;;;;;0.98;0.95;;;;;;;;;;5073144;28;20240;-83
2023/03/09 07:25:22;;;;;;;1.55;0.80;;;;;;;;;;5071060;28;20317;-83
2023/03/09 07:27:50;;;;;;;0.57;0.57;;;;;;;;;;5054455;28;20568;-84
2023/03/09 07:30:18;;;;;;;0.93;0.90;;;;;;;;;;5055426;28;20202;-83
2023/03/09 07:32:45;;;;;;;1.00;1.00;;;;;;;;;;5054187;28;20201;-83
2023/03/09 07:35:13;;;;;;;1.40;1.30;;;;;;;;;;5053723;28;20257;-83
2023/03/09 07:37:41;;;;;;;1.83;1.50;;;;;;;;;;5053799;28;20208;-83
2023/03/09 07:40:12;;;;;;;2.55;1.77;;;;;;;;;;5054355;28;20209;-84
2023/03/09 07:42:39;;;;;;;1.65;1.55;;;;;;;;;;5053498;28;20206;-83
2023/03/09 07:45:08;;;;;;;2.65;2.40;;;;;;;;;;5053362;28;20312;-82
2023/03/09 07:47:36;;;;;;;2.47;2.28;;;;;;;;;;5054277;28;20281;-83
2023/03/09 07:50:05;;;;;;;2.47;2.28;;;;;;;;;;5053473;28;20240;-83
2023/03/09 07:52:32;;;;;;;2.15;2.05;;;;;;;;;;5066045;28;20668;-84
2023/03/09 07:55:00;;;;;;;1.88;1.77;;;;;;;;;;5075588;28;20291;-84
2023/03/09 07:57:33;;;;;;;2.08;1.90;;;;;;;;;;5076832;28;20284;-84
2023/03/09 08:00:01;;;;;;;2.40;2.10;;;;;;;;;;5076169;28;20280;-85
2023/03/09 08:02:29;;;;;;;2.75;2.55;;;;;;;;;;5075433;28;20770;-85
2023/03/09 08:04:56;;;;;;;1.90;1.80;;;;;;;;;;5073075;28;20284;-83
2023/03/09 08:07:24;;;;;;;1.70;1.60;;;;;;;;;;5073116;28;20292;-83
2023/03/09 08:09:51;;;;;;;3.03;2.83;;;;;;;;;;5071704;28;20203;-84
2023/03/09 08:12:19;;;;;;;2.15;2.05;;;;;;;;;;5072570;28;20201;-85
2023/03/09 08:14:48;;;;;;;2.85;2.65;;;;;;;;;;5072456;28;20299;-83
2023/03/09 08:17:15;;;;;;;3.63;2.78;;;;;;;;;;5072530;28;20205;-84
2023/03/09 08:19:43;;;;;;;3.38;3.10;;;;;;;;;;5072492;28;20710;-85
2023/03/09 08:22:10;;;;;;;2.88;2.60;;;;;;;;;;5072239;28;20211;-83
2023/03/09 08:24:38;;;;;;;3.13;2.88;;;;;;;;;;5072140;28;20200;-83
2023/03/09 08:27:05;;;;;;;3.40;3.10;;;;;;;;;;5071858;28;20225;-82
2023/03/09 08:29:33;;;;;;;3.95;3.47;;;;;;;;;;5072055;28;20205;-84
2023/03/09 08:32:05;;;;;;;4.40;4.00;;;;;;;;;;5072386;28;20296;-83
2023/03/09 08:34:32;;;;;;;6.25;4.05;;;;;;;;;;5072508;28;20193;-83
2023/03/09 08:37:00;;;;;;;4.47;3.78;;;;;;;;;;5071862;28;20658;-83
2023/03/09 08:39:27;;;;;;;3.80;3.45;;;;;;;;;;5071667;28;20621;-85
2023/03/09 08:41:55;;;;;;;3.42;3.00;;;;;;;;;;5071901;28;20280;-84
2023/03/09 08:44:22;;;;;;;2.80;2.60;;;;;;;;;;5070467;28;20712;-83
2023/03/09 08:46:50;;;;;;;5.07;4.57;;;;;;;;;;5070588;28;20224;-83
2023/03/09 08:49:19;;;;;;;5.25;4.55;;;;;;;;;;5069923;28;20196;-82
2023/03/09 08:51:47;;;;;;;6.78;5.57;;;;;;;;;;5070304;28;20734;-83
2023/03/09 08:54:15;;;;;;;8.77;6.60;;;;;;;;;;5070864;28;20209;-84
2023/03/09 08:56:42;;;;;;;6.50;5.85;;;;;;;;;;5070062;28;20217;-83
2023/03/09 08:59:10;;;;;;;6.65;5.38;;;;;;;;;;5071239;28;20284;-85
2023/03/09 09:01:37;;;;;;;5.50;5.00;;;;;;;;;;5071441;28;20583;-85
2023/03/09 09:04:05;;;;;;;5.63;5.13;;;;;;;;;;5072078;28;20212;-83
2023/03/09 09:06:34;;;;;;;4.35;3.95;;;;;;;;;;5071533;28;20275;-82
2023/03/09 09:09:01;;;;;;;5.03;4.57;;;;;;;;;;5071635;28;20293;-85
2023/03/09 09:11:29;;;;;;;4.53;4.13;;;;;;;;;;5071658;28;20284;-84
2023/03/09 09:13:57;;;;;;;5.40;4.90;;;;;;;;;;5071736;28;20291;-84
2023/03/09 09:16:27;;;;;;;5.00;4.45;;;;;;;;;;5071813;28;20653;-83
2023/03/09 09:18:55;;;;;;;4.50;4.13;;;;;;;;;;5071497;28;20200;-83
2023/03/09 09:21:22;;;;;;;5.10;4.60;;;;;;;;;;5073560;28;20204;-85
2023/03/09 09:23:51;;;;;;;4.88;4.38;;;;;;;;;;5075226;28;20213;-84
2023/03/09 09:26:19;;;;;;;5.28;4.78;;;;;;;;;;5074789;28;20320;-83
2023/03/09 09:28:46;;;;;;;6.28;5.65;;;;;;;;;;5074980;28;20296;-86
2023/03/09 09:31:18;;;;;;;5.53;4.75;;;;;;;;;;5075264;28;20201;-85
2023/03/09 09:33:45;;;;;;;4.82;4.32;;;;;;;;;;5074988;28;20221;-83
2023/03/09 09:36:16;;;;;;;3.60;3.30;;;;;;;;;;5074318;28;20312;-84
2023/03/09 09:38:44;;;;;;;5.10;4.60;;;;;;;;;;5063669;28;20205;-84
2023/03/09 09:41:20;;;;;;;4.72;4.22;;;;;;;;;;5054777;28;20289;-85
2023/03/09 09:43:50;;;;;;;3.65;3.35;;;;;;;;;;5054733;28;20189;-83
2023/03/09 09:46:19;;;;;;;6.10;5.35;;;;;;;;;;5054948;28;20738;-83
2023/03/09 09:48:49;;;;;;;5.00;4.40;;;;;;;;;;5054537;28;20263;-84
2023/03/09 09:51:34;;;;;;;4.63;4.22;;;;;;;;;;5055227;28;20297;-84
2023/03/09 09:54:07;;;;;;;6.00;5.50;;;;;;;;;;5054812;28;20190;-84
2023/03/09 09:56:46;;;;;;;5.35;4.85;;;;;;;;;;5054550;28;20220;-84
2023/03/09 09:59:20;;;;;;;6.40;5.47;;;;;;;;;;5054563;28;20197;-85
2023/03/09 10:01:52;;;;;;;5.45;4.95;;;;;;;;;;5054633;28;20186;-84
2023/03/09 10:04:26;;;;;;;5.97;5.03;;;;;;;;;;5054581;28;20186;-84
2023/03/09 10:06:54;;;;;;;5.85;4.80;;;;;;;;;;5054125;28;20302;-83
2023/03/09 10:09:25;;;;;;;6.57;5.93;;;;;;;;;;5054464;28;20236;-83
2023/03/09 10:11:56;;;;;;;10.13;7.85;;;;;;;;;;5054616;28;20193;-84
2023/03/09 10:14:29;;;;;;;8.52;7.72;;;;;;;;;;5054184;28;20186;-84
2023/03/09 10:17:00;;;;;;;7.93;7.07;;;;;;;;;;5054249;28;20351;-84
2023/03/09 10:19:32;;;;;;;6.07;5.53;;;;;;;;;;5053994;28;20190;-84
2023/03/09 10:22:02;;;;;;;5.20;4.70;;;;;;;;;;5054074;28;20182;-85
2023/03/09 10:24:35;;;;;;;8.75;6.13;;;;;;;;;;5054171;28;20205;-84
2023/03/09 10:27:12;;;;;;;8.85;6.63;;;;;;;;;;5053903;28;20226;-84
2023/03/09 10:29:44;;;;;;;8.05;7.20;;;;;;;;;;5053932;28;20208;-85
2023/03/09 10:32:20;;;;;;;7.05;5.57;;;;;;;;;;5053519;28;20186;-84
2023/03/09 10:34:56;;;;;;;7.00;5.47;;;;;;;;;;5053773;28;20181;-84
2023/03/09 10:37:26;;;;;;;6.00;5.30;;;;;;;;;;5054244;28;20608;-85
2023/03/09 10:39:54;;;;;;;6.88;6.18;;;;;;;;;;5053262;28;20198;-83
2023/03/09 10:42:26;;;;;;;6.72;6.13;;;;;;;;;;5051654;28;20205;-83
2023/03/09 10:45:07;;;;;;;6.55;5.25;;;;;;;;;;5051769;28;20185;-83
2023/03/09 10:47:57;;;;;;;4.60;4.05;;;;;;;;;;5052881;28;20252;-84
2023/03/09 10:50:27;;;;;;;4.30;3.90;;;;;;;;;;5052123;28;20205;-83
2023/03/09 10:52:56;;;;;;;6.65;6.07;;;;;;;;;;5056199;28;20554;-84
2023/03/09 10:55:38;;;;;;;8.48;6.68;;;;;;;;;;5057437;28;20218;-84
2023/03/09 10:58:17;;;;;;;12.95;10.48;;;;;;;;;;5075189;28;20260;-83
2023/03/09 11:00:56;;;;;;;7.10;6.07;;;;;;;;;;5073764;28;20211;-84
2023/03/09 11:03:26;;;;;;;6.25;5.28;;;;;;;;;;5073498;28;20203;-85
2023/03/09 11:05:54;;;;;;;4.93;4.40;;;;;;;;;;5072646;28;20247;-83
2023/03/09 11:08:26;;;;;;;4.78;4.30;;;;;;;;;;5073006;28;20315;-82
2023/03/09 11:11:06;;;;;;;4.03;3.63;;;;;;;;;;5073614;28;20193;-84
2023/03/09 11:13:35;;;;;;;4.07;3.60;;;;;;;;;;5073493;28;20205;-82
2023/03/09 11:16:13;;;;;;;3.83;3.30;;;;;;;;;;5073347;28;20391;-85
2023/03/09 11:18:40;;;;;;;2.72;2.55;;;;;;;;;;5073254;28;20267;-83
2023/03/09 11:21:08;;;;;;;4.65;4.10;;;;;;;;;;5072976;28;20284;-83
2023/03/09 11:23:41;;;;;;;4.70;4.28;;;;;;;;;;5073199;28;20200;-84
2023/03/09 11:26:17;;;;;;;4.57;4.18;;;;;;;;;;5072812;28;20235;-85
2023/03/09 11:28:58;;;;;;;4.57;3.90;;;;;;;;;;5072322;28;20226;-86
2023/03/09 11:31:30;;;;;;;3.13;2.83;;;;;;;;;;5072964;28;20185;-82
2023/03/09 11:33:58;;;;;;;2.85;2.63;;;;;;;;;;5073113;28;20189;-83
2023/03/09 11:36:30;;;;;;;4.25;3.85;;;;;;;;;;5073663;28;20600;-84
2023/03/09 11:38:58;;;;;;;5.40;4.40;;;;;;;;;;5072206;28;20191;-85
2023/03/09 11:41:29;;;;;;;2.83;2.63;;;;;;;;;;5072760;28;20296;-84
2023/03/09 11:44:03;;;;;;;5.18;3.95;;;;;;;;;;5071939;28;20201;-86
2023/03/09 11:46:31;;;;;;;4.32;3.92;;;;;;;;;;5072985;28;20708;-84
2023/03/09 11:49:08;;;;;;;3.17;2.88;;;;;;;;;;5072576;28;20320;-84
2023/03/09 11:51:39;;;;;;;2.95;2.75;;;;;;;;;;5073190;28;20212;-84
2023/03/09 11:54:18;;;;;;;3.10;2.85;;;;;;;;;;5073406;28;20189;-85
2023/03/09 11:56:47;;;;;;;3.75;3.45;;;;;;;;;;5059940;28;20765;-85
2023/03/09 11:59:21;;;;;;;5.00;4.57;;;;;;;;;;5052530;28;20632;-85
2023/03/09 12:01:53;;;;;;;3.80;3.40;;;;;;;;;;5052770;28;20196;-85
2023/03/09 12:04:20;;;;;;;4.43;4.03;;;;;;;;;;5053144;28;20666;-84
2023/03/09 12:06:53;;;;;;;4.70;4.30;;;;;;;;;;5053016;28;20308;-85
2023/03/09 12:09:29;;;;;;;5.03;4.50;;;;;;;;;;5051999;28;20245;-85
2023/03/09 12:12:03;;;;;;;3.70;3.40;;;;;;;;;;5052673;28;20594;-85
2023/03/09 12:14:37;;;;;;;4.00;3.70;;;;;;;;;;5053833;28;20280;-85
2023/03/09 12:17:14;;;;;;;18.63;14.63;;;;;;;;;;5055362;28;20652;-85
2023/03/09 12:19:47;;;;;;;18.95;16.63;;;;;;;;;;5054711;28;20237;-84
2023/03/09 12:22:18;;;;;;;8.05;6.57;;;;;;;;;;5054240;28;20725;-85
2023/03/09 12:24:47;;;;;;;6.10;5.43;;;;;;;;;;5054826;28;20205;-84
2023/03/09 12:27:18;;;;;;;6.18;5.57;;;;;;;;;;5071044;28;20292;-85
2023/03/09 12:29:50;;;;;;;5.78;4.95;;;;;;;;;;5073551;28;20207;-84
2023/03/09 12:32:38;;;;;;;6.32;5.65;;;;;;;;;;5073129;28;20280;-85
2023/03/09 12:35:42;;;;;;;7.53;6.45;;;;;;;;;;5072748;28;20186;-85
2023/03/09 12:38:22;;;;;;;6.38;5.55;;;;;;;;;;5072703;28;20625;-86
2023/03/09 12:40:51;;;;;;;7.30;6.65;;;;;;;;;;5072220;28;20185;-85
2023/03/09 12:43:49;;;;;;;5.13;4.63;;;;;;;;;;5072310;28;20204;-86
2023/03/09 12:47:01;;;;;;;5.55;5.05;;;;;;;;;;5072820;28;20217;-85
2023/03/09 12:49:34;;;;;;;6.22;5.28;;;;;;;;;;5072231;28;20205;-85
2023/03/09 12:52:32;;;;;;;6.05;5.43;;;;;;;;;;5072649;28;20262;-84
2023/03/09 12:55:10;;;;;;;7.25;6.55;;;;;;;;;;5070710;28;20292;-85
2023/03/09 12:57:37;;;;;;;3.95;3.47;;;;;;;;;;5069838;28;20547;-86
2023/03/09 13:00:29;;;;;;;5.05;4.60;;;;;;;;;;5075907;28;20207;-84
2023/03/09 13:03:14;;;;;;;4.72;4.32;;;;;;;;;;5076404;28;20196;-85
2023/03/09 13:05:45;;;;;;;9.48;8.48;;;;;;;;;;5076290;28;20221;-86
2023/03/09 13:08:30;;;;;;;6.90;6.22;;;;;;;;;;5076080;28;20572;-85
2023/03/09 13:11:32;;;;;;;7.07;6.47;;;;;;;;;;5075972;28;20181;-84
2023/03/09 13:14:01;;;;;;;6.65;6.03;;;;;;;;;;5076156;28;20806;-84
2023/03/09 13:16:54;;;;;;;5.18;4.72;;;;;;;;;;5076065;28;20216;-85
2023/03/09 13:19:56;;;;;;;9.60;8.70;;;;;;;;;;5076280;28;20235;-85
2023/03/09 13:22:36;;;;;;;7.43;6.65;;;;;;;;;;5076779;28;20228;-85
2023/03/09 13:25:49;;;;;;;15.10;8.10;;;;;;;;;;5077355;28;20735;-84
2023/03/09 13:28:30;;;;;;;29.05;22.55;;;;;;;;;;5041285;28;20304;-84
2023/03/09 13:31:04;;;;;;;11.15;8.65;;;;;;;;;;5055941;28;20231;-84
2023/03/09 13:33:35;;;;;;;8.57;6.43;;;;;;;;;;5055667;28;20184;-84
2023/03/09 13:36:19;;;;;;;7.97;6.80;;;;;;;;;;5055714;28;20313;-84
2023/03/09 13:38:49;;;;;;;10.05;7.80;;;;;;;;;;5054955;28;20189;-86
2023/03/09 13:41:21;;;;;;;4.78;4.35;;;;;;;;;;5055661;28;20201;-85
2023/03/09 13:43:51;;;;;;;5.20;4.68;;;;;;;;;;5055496;28;20724;-85
2023/03/09 13:46:25;;;;;;;3.88;3.53;;;;;;;;;;5055273;28;20304;-84
2023/03/09 13:48:55;;;;;;;3.97;3.65;;;;;;;;;;5055083;28;20226;-84
2023/03/09 13:51:36;;;;;;;5.82;5.32;;;;;;;;;;5056132;28;20208;-84
2023/03/09 13:54:04;;;;;;;3.60;3.30;;;;;;;;;;5075277;28;20212;-85
2023/03/09 13:56:32;;;;;;;5.00;4.53;;;;;;;;;;5075215;28;20669;-85
2023/03/09 13:59:00;;;;;;;3.97;3.67;;;;;;;;;;5074785;28;20199;-84
2023/03/09 14:01:29;;;;;;;5.53;5.03;;;;;;;;;;5075289;28;20205;-84
2023/03/09 14:03:59;;;;;;;6.32;5.72;;;;;;;;;;5074959;28;20201;-84
2023/03/09 14:06:33;;;;;;;4.50;4.10;;;;;;;;;;5075171;28;20225;-84
2023/03/09 14:09:20;;;;;;;6.40;5.15;;;;;;;;;;5074238;28;20209;-85
2023/03/09 14:11:47;;;;;;;5.05;4.63;;;;;;;;;;5075024;28;20191;-85
2023/03/09 14:14:20;;;;;;;4.93;4.43;;;;;;;;;;5075253;28;20640;-84
2023/03/09 14:16:49;;;;;;;6.30;5.47;;;;;;;;;;5075339;28;20225;-84
2023/03/09 14:19:24;;;;;;;5.10;4.60;;;;;;;;;;5074815;28;20642;-84
2023/03/09 14:21:54;;;;;;;6.97;6.28;;;;;;;;;;5074991;28;20219;-85
2023/03/09 14:25:05;;;;;;;7.32;6.63;;;;;;;;;;5074664;28;20221;-84
2023/03/09 14:27:35;;;;;;;8.20;5.97;;;;;;;;;;5074771;28;20224;-84
2023/03/09 14:30:38;;;;;;;6.82;6.10;;;;;;;;;;5074349;28;20225;-84
2023/03/09 14:33:20;;;;;;;5.00;4.45;;;;;;;;;;5075883;28;20200;-86
2023/03/09 14:35:48;;;;;;;5.93;5.43;;;;;;;;;;5082716;28;20311;-87
2023/03/09 14:38:21;;;;;;;6.88;5.85;;;;;;;;;;5082373;28;20224;-85
2023/03/09 14:40:49;;;;;;;6.00;5.05;;;;;;;;;;5080405;28;20186;-84
2023/03/09 14:43:34;;;;;;;8.05;5.72;;;;;;;;;;5080374;28;20204;-85
2023/03/09 14:46:16;;;;;;;5.22;4.70;;;;;;;;;;5080208;28;20261;-84
2023/03/09 14:48:46;;;;;;;5.28;4.75;;;;;;;;;;5079497;28;20200;-85
2023/03/09 14:51:17;;;;;;;4.70;4.25;;;;;;;;;;5080142;28;20249;-87
2023/03/09 14:53:55;;;;;;;5.35;4.85;;;;;;;;;;5079799;28;20189;-85
2023/03/09 14:56:24;;;;;;;5.97;5.47;;;;;;;;;;5079449;28;20310;-85
2023/03/09 14:58:52;;;;;;;5.70;5.20;;;;;;;;;;5079146;28;20225;-84
2023/03/09 15:01:22;;;;;;;6.03;5.53;;;;;;;;;;5079847;28;20197;-85
2023/03/09 15:03:49;;;;;;;5.30;4.80;;;;;;;;;;5073914;28;20236;-84
2023/03/09 15:06:17;;;;;;;3.95;3.63;;;;;;;;;;5074085;28;20661;-87